Time;durP1;ratioP1;P1;durP2;ratioP2;P2;SDS_P1;SDS_P2;PMS_P1;PMS_P2;Temp;Humidity;BMP_temperature;BMP_pressure;BME280_temperature;BME280_humidity;BME280_pressure;Samples;Min_cycle;Max_cycle;Signal;HPM_P1;HPM_P2
2021/08/13 00:01:27;;;;;;;12.32;6.65;;;;;;;;;;4996653;28;20116;-60
2021/08/13 00:03:53;;;;;;;14.60;6.40;;;;;;;;;;4975029;28;20493;-60
2021/08/13 00:06:20;;;;;;;11.20;6.28;;;;;;;;;;4976428;28;20401;-59
2021/08/13 00:08:48;;;;;;;12.15;6.22;;;;;;;;;;4996450;28;20041;-60
2021/08/13 00:11:14;;;;;;;10.90;6.57;;;;;;;;;;4979381;28;20026;-60
2021/08/13 00:13:39;;;;;;;12.93;6.68;;;;;;;;;;4995855;28;20094;-60
2021/08/13 00:16:05;;;;;;;13.05;6.57;;;;;;;;;;4983394;28;20041;-61
2021/08/13 00:18:30;;;;;;;11.60;6.97;;;;;;;;;;4977227;28;20126;-59
2021/08/13 00:20:56;;;;;;;13.00;7.05;;;;;;;;;;4995113;28;20048;-60
2021/08/13 00:23:21;;;;;;;11.73;6.60;;;;;;;;;;4995354;28;20120;-60
2021/08/13 00:25:50;;;;;;;12.30;6.55;;;;;;;;;;4994383;28;20041;-60
2021/08/13 00:28:16;;;;;;;12.65;5.50;;;;;;;;;;5001977;28;20478;-60
2021/08/13 00:30:41;;;;;;;16.02;6.60;;;;;;;;;;4983707;28;20040;-59
2021/08/13 00:33:07;;;;;;;15.90;6.45;;;;;;;;;;4997009;28;20514;-59
2021/08/13 00:35:32;;;;;;;10.77;6.85;;;;;;;;;;5001289;28;20053;-59
2021/08/13 00:37:58;;;;;;;12.38;6.32;;;;;;;;;;4981718;28;20037;-60
2021/08/13 00:40:24;;;;;;;17.98;6.82;;;;;;;;;;4999961;28;20042;-60
2021/08/13 00:42:50;;;;;;;14.48;7.40;;;;;;;;;;5000857;28;20069;-60
2021/08/13 00:45:15;;;;;;;14.57;6.78;;;;;;;;;;4999508;28;21011;-59
2021/08/13 00:47:41;;;;;;;13.25;6.30;;;;;;;;;;4981788;28;20021;-60
2021/08/13 00:50:07;;;;;;;11.00;6.47;;;;;;;;;;4999554;28;20037;-60
2021/08/13 00:52:35;;;;;;;13.55;6.85;;;;;;;;;;4980993;28;20060;-60
2021/08/13 00:55:01;;;;;;;11.05;6.18;;;;;;;;;;4996894;28;20568;-59
2021/08/13 00:57:26;;;;;;;13.25;6.63;;;;;;;;;;4997307;28;20029;-59
2021/08/13 00:59:52;;;;;;;14.27;6.75;;;;;;;;;;4984915;28;20072;-61
2021/08/13 01:02:17;;;;;;;13.05;7.10;;;;;;;;;;5000413;28;20029;-60
2021/08/13 01:04:43;;;;;;;12.68;7.18;;;;;;;;;;4999384;28;20057;-60
2021/08/13 01:07:12;;;;;;;11.73;6.45;;;;;;;;;;4971982;28;20049;-61
2021/08/13 01:09:40;;;;;;;22.38;7.40;;;;;;;;;;4997890;28;20025;-61
2021/08/13 01:12:17;;;;;;;15.77;8.07;;;;;;;;;;4999884;28;20736;-60
2021/08/13 01:15:02;;;;;;;18.33;7.15;;;;;;;;;;5000393;28;20041;-60
2021/08/13 01:17:30;;;;;;;16.90;7.10;;;;;;;;;;4999552;28;20072;-60
2021/08/13 01:20:06;;;;;;;16.00;7.72;;;;;;;;;;4981962;28;20036;-60
2021/08/13 01:22:44;;;;;;;21.40;8.02;;;;;;;;;;4981943;28;20091;-61
2021/08/13 01:25:11;;;;;;;20.70;8.30;;;;;;;;;;4979757;28;20025;-60
2021/08/13 01:27:41;;;;;;;18.13;8.75;;;;;;;;;;4998090;28;20030;-60
2021/08/13 01:30:07;;;;;;;14.85;8.40;;;;;;;;;;4998890;28;20045;-61
2021/08/13 01:32:37;;;;;;;17.02;8.10;;;;;;;;;;4998322;28;20055;-59
2021/08/13 01:35:06;;;;;;;14.45;8.15;;;;;;;;;;4986426;28;20503;-59
2021/08/13 01:37:32;;;;;;;16.52;8.27;;;;;;;;;;4998672;28;20049;-59
2021/08/13 01:39:59;;;;;;;14.85;8.10;;;;;;;;;;4996281;28;20037;-61
2021/08/13 01:42:27;;;;;;;18.70;8.65;;;;;;;;;;4997071;28;20196;-60
2021/08/13 01:44:55;;;;;;;16.05;8.85;;;;;;;;;;5001440;28;20038;-59
2021/08/13 01:47:23;;;;;;;16.45;7.80;;;;;;;;;;4996437;28;20089;-59
2021/08/13 01:49:50;;;;;;;19.45;8.98;;;;;;;;;;4986410;28;20113;-59
2021/08/13 01:52:17;;;;;;;18.40;9.30;;;;;;;;;;5000698;28;20025;-60
2021/08/13 01:54:43;;;;;;;16.60;8.20;;;;;;;;;;4998187;28;20040;-60
2021/08/13 01:57:10;;;;;;;20.20;9.20;;;;;;;;;;4999990;28;20030;-60
2021/08/13 01:59:37;;;;;;;21.08;8.68;;;;;;;;;;4997680;28;20910;-60
2021/08/13 02:02:05;;;;;;;21.42;10.20;;;;;;;;;;4963619;28;22065;-60
2021/08/13 02:04:32;;;;;;;23.15;9.85;;;;;;;;;;4999544;28;20022;-60
2021/08/13 02:07:00;;;;;;;16.85;9.07;;;;;;;;;;4997769;28;20033;-60
2021/08/13 02:09:28;;;;;;;23.13;9.90;;;;;;;;;;4981085;28;20029;-59
2021/08/13 02:11:56;;;;;;;24.20;8.80;;;;;;;;;;4998435;28;20056;-59
2021/08/13 02:14:21;;;;;;;21.08;9.55;;;;;;;;;;4981688;28;21611;-60
2021/08/13 02:16:52;;;;;;;22.33;8.63;;;;;;;;;;4983930;28;20644;-60
2021/08/13 02:19:27;;;;;;;22.70;10.07;;;;;;;;;;4999187;28;20517;-60
2021/08/13 02:21:52;;;;;;;19.88;9.70;;;;;;;;;;5000371;28;20038;-60
2021/08/13 02:24:18;;;;;;;23.30;9.55;;;;;;;;;;4980153;28;20080;-60
2021/08/13 02:26:45;;;;;;;20.50;9.63;;;;;;;;;;4980784;28;20117;-60
2021/08/13 02:29:11;;;;;;;18.83;9.65;;;;;;;;;;4988535;28;20159;-60
2021/08/13 02:31:36;;;;;;;18.17;9.05;;;;;;;;;;4998589;28;20699;-60
2021/08/13 02:34:02;;;;;;;20.42;10.10;;;;;;;;;;4982814;28;20598;-60
2021/08/13 02:36:36;;;;;;;20.75;9.98;;;;;;;;;;4999942;28;20744;-60
2021/08/13 02:39:04;;;;;;;19.90;10.05;;;;;;;;;;4980607;28;20128;-60
2021/08/13 02:41:33;;;;;;;23.48;10.98;;;;;;;;;;4989739;28;20033;-60
2021/08/13 02:44:02;;;;;;;21.88;9.60;;;;;;;;;;4999155;28;20048;-60
2021/08/13 02:46:34;;;;;;;24.42;10.45;;;;;;;;;;4980332;28;20037;-60
2021/08/13 02:49:01;;;;;;;23.42;10.13;;;;;;;;;;4998868;28;20413;-60
2021/08/13 02:51:29;;;;;;;18.98;9.73;;;;;;;;;;5000710;28;20534;-60
2021/08/13 02:53:55;;;;;;;21.20;10.07;;;;;;;;;;4996500;28;20312;-60
2021/08/13 02:56:26;;;;;;;31.20;11.50;;;;;;;;;;4997246;28;20500;-59
2021/08/13 02:58:54;;;;;;;26.40;11.10;;;;;;;;;;4997066;28;20067;-60
2021/08/13 03:01:27;;;;;;;22.67;10.43;;;;;;;;;;4996278;28;20041;-60
2021/08/13 03:03:53;;;;;;;20.63;10.02;;;;;;;;;;4980104;28;22129;-60
2021/08/13 03:06:20;;;;;;;23.58;11.27;;;;;;;;;;4998679;28;20951;-60
2021/08/13 03:08:47;;;;;;;25.33;11.40;;;;;;;;;;4996184;28;20029;-61
2021/08/13 03:11:16;;;;;;;21.30;10.57;;;;;;;;;;4999799;28;20517;-60
2021/08/13 03:13:46;;;;;;;24.08;10.68;;;;;;;;;;4980328;28;20534;-60
2021/08/13 03:19:46;;;;;;;17.67;9.40;;;;;;;;;;4999813;28;20210;-60
2021/08/13 03:22:17;;;;;;;22.58;10.27;;;;;;;;;;4981802;28;21864;-60
2021/08/13 03:24:45;;;;;;;25.15;10.85;;;;;;;;;;4995865;28;20478;-60
2021/08/13 03:27:10;;;;;;;26.02;11.07;;;;;;;;;;4999538;28;20072;-60
2021/08/13 03:29:36;;;;;;;27.38;10.57;;;;;;;;;;4996683;28;20116;-60
2021/08/13 03:32:04;;;;;;;26.63;11.32;;;;;;;;;;4997588;28;20072;-60
2021/08/13 03:34:32;;;;;;;22.25;10.57;;;;;;;;;;4999468;28;20029;-60
2021/08/13 03:36:58;;;;;;;28.02;11.40;;;;;;;;;;4980433;28;20076;-60
2021/08/13 03:39:23;;;;;;;23.05;11.05;;;;;;;;;;4996885;28;20124;-60
2021/08/13 03:41:49;;;;;;;26.25;11.55;;;;;;;;;;4996828;28;20017;-60
2021/08/13 03:44:14;;;;;;;29.98;10.75;;;;;;;;;;4997044;28;20037;-60
2021/08/13 03:46:39;;;;;;;26.23;11.75;;;;;;;;;;4979789;28;20026;-60
2021/08/13 03:49:05;;;;;;;24.70;10.93;;;;;;;;;;4997998;28;20032;-60
2021/08/13 03:51:30;;;;;;;21.63;10.20;;;;;;;;;;4996304;28;20022;-60
2021/08/13 03:53:56;;;;;;;20.45;9.88;;;;;;;;;;4980674;28;20657;-60
2021/08/13 03:56:21;;;;;;;22.08;9.80;;;;;;;;;;4979336;28;20060;-60
2021/08/13 03:58:46;;;;;;;23.92;10.55;;;;;;;;;;4980920;28;20049;-60
2021/08/13 04:01:12;;;;;;;25.65;10.90;;;;;;;;;;4996592;28;20041;-60
2021/08/13 04:03:37;;;;;;;21.88;10.38;;;;;;;;;;4997236;28;20038;-60
2021/08/13 04:06:03;;;;;;;26.83;11.68;;;;;;;;;;4981216;28;20034;-59
2021/08/13 04:08:30;;;;;;;26.90;10.50;;;;;;;;;;4994672;28;20104;-59
2021/08/13 04:10:56;;;;;;;23.10;11.38;;;;;;;;;;4980475;28;20061;-59
2021/08/13 04:13:24;;;;;;;22.52;10.88;;;;;;;;;;4998664;28;20139;-60
2021/08/13 04:15:52;;;;;;;28.40;12.25;;;;;;;;;;4961749;28;20202;-60
2021/08/13 04:18:20;;;;;;;24.88;11.48;;;;;;;;;;4999195;28;20141;-60
2021/08/13 04:20:48;;;;;;;24.92;10.88;;;;;;;;;;4996808;28;20037;-60
2021/08/13 04:23:14;;;;;;;26.70;12.35;;;;;;;;;;4995520;28;20030;-60
2021/08/13 04:25:42;;;;;;;22.95;10.88;;;;;;;;;;4998361;28;20156;-66
2021/08/13 04:28:10;;;;;;;27.08;12.27;;;;;;;;;;4995853;28;20049;-60
2021/08/13 04:30:36;;;;;;;26.50;11.77;;;;;;;;;;4977068;28;20522;-60
2021/08/13 04:33:09;;;;;;;24.88;12.63;;;;;;;;;;4998160;28;20496;-60
2021/08/13 04:35:37;;;;;;;23.98;11.13;;;;;;;;;;4996351;28;20097;-59
2021/08/13 04:38:04;;;;;;;24.90;11.52;;;;;;;;;;4994587;28;20505;-59
2021/08/13 04:40:29;;;;;;;28.35;12.52;;;;;;;;;;4984367;28;20494;-60
2021/08/13 04:42:55;;;;;;;27.67;11.35;;;;;;;;;;4995354;28;20049;-60
2021/08/13 04:45:20;;;;;;;27.17;12.95;;;;;;;;;;4978176;28;20107;-59
2021/08/13 04:47:46;;;;;;;29.25;12.48;;;;;;;;;;4995050;28;20025;-59
2021/08/13 04:50:11;;;;;;;27.98;12.52;;;;;;;;;;4997896;28;20136;-59
2021/08/13 04:52:47;;;;;;;27.17;11.95;;;;;;;;;;4996129;28;20072;-59
2021/08/13 04:55:17;;;;;;;27.27;11.52;;;;;;;;;;4983695;28;20104;-59
2021/08/13 04:57:42;;;;;;;26.92;10.57;;;;;;;;;;4998616;28;20035;-60
2021/08/13 05:00:08;;;;;;;26.05;12.32;;;;;;;;;;4983797;28;20579;-59
2021/08/13 05:02:35;;;;;;;29.73;10.43;;;;;;;;;;4996194;28;20036;-59
2021/08/13 05:05:03;;;;;;;21.45;10.55;;;;;;;;;;4997945;28;20034;-60
2021/08/13 05:07:34;;;;;;;21.75;10.15;;;;;;;;;;4963147;28;20033;-61
2021/08/13 05:10:07;;;;;;;20.60;11.05;;;;;;;;;;4998442;28;20018;-61
2021/08/13 05:12:32;;;;;;;22.88;9.73;;;;;;;;;;4997818;28;20128;-60
2021/08/13 05:14:58;;;;;;;23.23;9.85;;;;;;;;;;4983198;28;20092;-60
2021/08/13 05:17:24;;;;;;;17.77;9.15;;;;;;;;;;4970673;28;20709;-60
2021/08/13 05:19:52;;;;;;;17.92;9.57;;;;;;;;;;5000133;28;20065;-60
2021/08/13 05:22:20;;;;;;;20.92;10.82;;;;;;;;;;4989193;28;20049;-61
2021/08/13 05:24:48;;;;;;;18.65;10.98;;;;;;;;;;4999097;28;20025;-60
2021/08/13 05:27:16;;;;;;;18.23;9.65;;;;;;;;;;5001221;28;20061;-61
2021/08/13 05:29:42;;;;;;;18.67;9.82;;;;;;;;;;4983137;28;20121;-61
2021/08/13 05:32:07;;;;;;;23.63;10.68;;;;;;;;;;5000328;28;20045;-61
2021/08/13 05:34:33;;;;;;;18.20;10.13;;;;;;;;;;4996864;28;20393;-61
2021/08/13 05:36:59;;;;;;;22.73;10.95;;;;;;;;;;4983150;28;20029;-62
2021/08/13 05:39:27;;;;;;;19.02;10.10;;;;;;;;;;4999035;28;21075;-62
2021/08/13 05:41:52;;;;;;;18.05;9.98;;;;;;;;;;4999571;28;20095;-61
2021/08/13 05:44:18;;;;;;;18.50;9.68;;;;;;;;;;5000353;28;20025;-61
2021/08/13 05:46:44;;;;;;;20.10;10.00;;;;;;;;;;4987519;28;20513;-61
2021/08/13 05:49:12;;;;;;;18.52;10.00;;;;;;;;;;4982280;28;20165;-61
2021/08/13 05:51:39;;;;;;;19.23;9.75;;;;;;;;;;4998173;28;20042;-61
2021/08/13 05:54:08;;;;;;;19.83;10.15;;;;;;;;;;4982758;28;20099;-61
2021/08/13 05:56:38;;;;;;;21.08;10.07;;;;;;;;;;4980573;28;20100;-61
2021/08/13 05:59:06;;;;;;;18.67;9.95;;;;;;;;;;4983617;28;20030;-60
2021/08/13 06:01:37;;;;;;;19.55;10.00;;;;;;;;;;5001032;28;20023;-61
2021/08/13 06:04:04;;;;;;;17.08;9.13;;;;;;;;;;4998785;28;20060;-61
2021/08/13 06:06:30;;;;;;;17.90;9.32;;;;;;;;;;4998502;28;20124;-62
2021/08/13 06:08:56;;;;;;;16.25;9.40;;;;;;;;;;4979796;28;20118;-61
2021/08/13 06:11:24;;;;;;;17.48;9.75;;;;;;;;;;4983656;28;20461;-61
2021/08/13 06:13:52;;;;;;;15.60;9.50;;;;;;;;;;4983130;28;20037;-62
2021/08/13 06:16:18;;;;;;;17.10;9.35;;;;;;;;;;4982498;28;20547;-60
2021/08/13 06:18:49;;;;;;;18.35;8.95;;;;;;;;;;5000431;28;20025;-61
2021/08/13 06:21:17;;;;;;;26.00;11.43;;;;;;;;;;4981728;28;20044;-62
2021/08/13 06:23:48;;;;;;;15.07;8.50;;;;;;;;;;5000221;28;20033;-60
2021/08/13 06:26:16;;;;;;;18.60;9.73;;;;;;;;;;4998406;28;20052;-60
2021/08/13 06:28:43;;;;;;;21.33;9.80;;;;;;;;;;5000180;28;20877;-60
2021/08/13 06:31:13;;;;;;;17.88;9.80;;;;;;;;;;4998621;28;20033;-61
2021/08/13 06:33:40;;;;;;;15.48;9.05;;;;;;;;;;4996460;28;20107;-61
2021/08/13 06:36:05;;;;;;;18.25;10.18;;;;;;;;;;4982679;28;20049;-60
2021/08/13 06:38:32;;;;;;;22.98;9.77;;;;;;;;;;5000934;28;20037;-61
2021/08/13 06:41:03;;;;;;;14.73;9.20;;;;;;;;;;4999633;28;20034;-61
2021/08/13 06:43:29;;;;;;;16.38;8.80;;;;;;;;;;4987201;28;20065;-62
2021/08/13 06:45:56;;;;;;;18.30;9.75;;;;;;;;;;4998238;28;20745;-62
2021/08/13 06:48:25;;;;;;;15.88;9.27;;;;;;;;;;4999356;28;20639;-61
2021/08/13 06:50:52;;;;;;;18.20;9.98;;;;;;;;;;4999974;28;20025;-60
2021/08/13 06:53:18;;;;;;;15.30;8.65;;;;;;;;;;4997666;28;20041;-61
2021/08/13 06:55:46;;;;;;;18.35;9.07;;;;;;;;;;4999202;28;20033;-61
2021/08/13 06:58:14;;;;;;;16.90;9.82;;;;;;;;;;4980892;28;20034;-61
2021/08/13 07:00:42;;;;;;;19.95;9.98;;;;;;;;;;4993489;28;21101;-61
2021/08/13 07:03:08;;;;;;;17.92;9.82;;;;;;;;;;4982510;28;20134;-61
2021/08/13 07:05:36;;;;;;;17.48;9.13;;;;;;;;;;4995189;28;20030;-61
2021/08/13 07:08:08;;;;;;;16.75;9.82;;;;;;;;;;4996636;28;20909;-62
2021/08/13 07:10:34;;;;;;;15.95;9.40;;;;;;;;;;4997803;28;20215;-61
2021/08/13 07:12:59;;;;;;;15.30;8.90;;;;;;;;;;4996999;28;20976;-61
2021/08/13 07:15:27;;;;;;;16.08;8.43;;;;;;;;;;4996257;28;20069;-61
2021/08/13 07:17:55;;;;;;;15.38;8.38;;;;;;;;;;4964545;28;20175;-62
2021/08/13 07:20:20;;;;;;;17.63;9.35;;;;;;;;;;4999080;28;20041;-61
2021/08/13 07:22:49;;;;;;;16.25;8.95;;;;;;;;;;4979158;28;20036;-61
2021/08/13 07:25:14;;;;;;;15.70;8.88;;;;;;;;;;4980796;28;20053;-60
2021/08/13 07:27:40;;;;;;;16.08;8.73;;;;;;;;;;4997919;28;20469;-61
2021/08/13 07:30:05;;;;;;;14.07;8.35;;;;;;;;;;4996408;28;22188;-61
2021/08/13 07:32:36;;;;;;;11.07;7.75;;;;;;;;;;4995679;28;20037;-61
2021/08/13 07:35:04;;;;;;;14.27;8.00;;;;;;;;;;4980336;28;20046;-61
2021/08/13 07:37:29;;;;;;;14.90;8.75;;;;;;;;;;4979793;28;20043;-61
2021/08/13 07:39:57;;;;;;;13.70;8.00;;;;;;;;;;4998703;28;20025;-61
2021/08/13 07:42:26;;;;;;;14.23;8.15;;;;;;;;;;4982229;28;20389;-60
2021/08/13 07:44:56;;;;;;;15.75;8.80;;;;;;;;;;4981131;28;20064;-60
2021/08/13 07:47:23;;;;;;;17.67;8.68;;;;;;;;;;4994857;28;20080;-61
2021/08/13 07:49:48;;;;;;;16.63;8.07;;;;;;;;;;4998027;28;20666;-62
2021/08/13 07:52:14;;;;;;;11.00;7.10;;;;;;;;;;4999487;28;20385;-61
2021/08/13 07:54:42;;;;;;;15.55;8.77;;;;;;;;;;4978675;28;20029;-60
2021/08/13 07:57:13;;;;;;;13.45;7.18;;;;;;;;;;4981889;28;20046;-61
2021/08/13 07:59:38;;;;;;;12.68;7.72;;;;;;;;;;4977894;28;20046;-60
2021/08/13 08:02:04;;;;;;;14.05;7.95;;;;;;;;;;4979988;28;20029;-61
2021/08/13 08:04:32;;;;;;;13.13;7.70;;;;;;;;;;4979762;28;20571;-61
2021/08/13 08:07:03;;;;;;;11.35;6.88;;;;;;;;;;4978556;28;20576;-61
2021/08/13 08:09:29;;;;;;;13.75;7.68;;;;;;;;;;4993922;28;20044;-61
2021/08/13 08:11:54;;;;;;;10.88;6.97;;;;;;;;;;4996276;28;20025;-61
2021/08/13 08:14:20;;;;;;;15.52;6.53;;;;;;;;;;4978909;28;21085;-60
2021/08/13 08:16:46;;;;;;;11.35;7.00;;;;;;;;;;4982233;28;20029;-61
2021/08/13 08:19:11;;;;;;;11.50;6.80;;;;;;;;;;4979981;28;20033;-61
2021/08/13 08:21:40;;;;;;;11.98;7.15;;;;;;;;;;4995592;28;20100;-61
2021/08/13 08:24:19;;;;;;;13.90;6.68;;;;;;;;;;4993580;28;20037;-60
2021/08/13 08:26:48;;;;;;;10.98;6.72;;;;;;;;;;4996955;28;20462;-61
2021/08/13 08:29:14;;;;;;;10.95;6.60;;;;;;;;;;4978671;28;20662;-61
2021/08/13 08:31:40;;;;;;;10.10;6.53;;;;;;;;;;4994686;28;20033;-62
2021/08/13 08:37:52;;;;;;;10.00;6.23;;;;;;;;;;4978984;28;20050;-61
2021/08/13 08:40:34;;;;;;;12.27;8.13;;;;;;;;;;5252571;22;21658;-63
2021/08/13 08:43:00;;;;;;;13.65;6.43;;;;;;;;;;5012487;28;20345;-61
2021/08/13 08:45:27;;;;;;;11.23;6.47;;;;;;;;;;5015081;28;20021;-61
2021/08/13 08:48:00;;;;;;;11.68;6.60;;;;;;;;;;5016388;28;20396;-61
2021/08/13 08:50:27;;;;;;;9.90;5.80;;;;;;;;;;5018219;28;20470;-62
2021/08/13 08:52:52;;;;;;;10.68;5.50;;;;;;;;;;5006739;28;20993;-62
2021/08/13 08:55:20;;;;;;;7.72;4.47;;;;;;;;;;5016904;28;20033;-59
2021/08/13 08:57:49;;;;;;;11.48;5.65;;;;;;;;;;5002574;28;20060;-62
2021/08/13 09:00:15;;;;;;;8.85;5.45;;;;;;;;;;5019099;28;20029;-61
2021/08/13 09:02:44;;;;;;;8.65;4.97;;;;;;;;;;5020525;28;20029;-62
2021/08/13 09:05:12;;;;;;;10.55;5.60;;;;;;;;;;5019895;28;22049;-62
2021/08/13 09:07:55;;;;;;;8.05;4.40;;;;;;;;;;5009147;28;20037;-61
2021/08/13 09:10:23;;;;;;;8.65;4.93;;;;;;;;;;4993746;28;20116;-61
2021/08/13 09:12:50;;;;;;;11.32;5.20;;;;;;;;;;5003648;28;20047;-61
2021/08/13 09:15:29;;;;;;;8.40;4.47;;;;;;;;;;4986713;28;20099;-61
2021/08/13 09:21:03;;;;;;;9.68;4.35;;;;;;;;;;4986244;28;20064;-61
2021/08/13 09:23:43;;;;;;;6.43;4.10;;;;;;;;;;5004887;28;20037;-61
2021/08/13 09:26:09;;;;;;;10.68;4.28;;;;;;;;;;5003451;28;20052;-62
2021/08/13 09:28:37;;;;;;;7.82;3.83;;;;;;;;;;5005983;28;20030;-60
2021/08/13 09:31:21;;;;;;;7.32;4.13;;;;;;;;;;4986327;28;20444;-62
2021/08/13 09:33:52;;;;;;;11.30;4.15;;;;;;;;;;5003165;28;20445;-61
2021/08/13 09:36:26;;;;;;;8.80;3.53;;;;;;;;;;5002669;28;20041;-62
2021/08/13 09:39:08;;;;;;;6.15;3.30;;;;;;;;;;5004437;28;20626;-61
2021/08/13 09:41:44;;;;;;;4.57;2.95;;;;;;;;;;5005535;28;20090;-62
2021/08/13 09:44:09;;;;;;;10.82;3.17;;;;;;;;;;5004548;28;20187;-61
2021/08/13 09:46:56;;;;;;;7.45;3.20;;;;;;;;;;5005113;28;20025;-61
2021/08/13 09:49:21;;;;;;;10.75;3.15;;;;;;;;;;5003646;28;20026;-61
2021/08/13 09:51:47;;;;;;;6.25;2.58;;;;;;;;;;4996468;28;21023;-60
2021/08/13 09:54:13;;;;;;;5.38;2.30;;;;;;;;;;5002178;28;20481;-62
2021/08/13 09:57:07;;;;;;;3.88;2.13;;;;;;;;;;4987691;28;20037;-62
2021/08/13 09:59:33;;;;;;;3.10;2.10;;;;;;;;;;4987570;28;21089;-62
2021/08/13 10:02:08;;;;;;;3.75;2.33;;;;;;;;;;4984799;28;20021;-61
2021/08/13 10:04:34;;;;;;;3.63;1.98;;;;;;;;;;4985987;28;20040;-61
2021/08/13 10:06:59;;;;;;;8.50;3.15;;;;;;;;;;4969594;28;20057;-61
2021/08/13 10:09:49;;;;;;;6.65;2.03;;;;;;;;;;5002891;28;20037;-62
2021/08/13 10:12:41;;;;;;;5.97;2.47;;;;;;;;;;5002587;28;20598;-61
2021/08/13 10:15:40;;;;;;;3.30;2.08;;;;;;;;;;4987919;28;20164;-62
2021/08/13 10:18:21;;;;;;;4.32;2.60;;;;;;;;;;4970688;28;20037;-61
2021/08/13 10:24:23;;;;;;;7.50;2.70;;;;;;;;;;4996571;28;20048;-61
2021/08/13 10:26:56;;;;;;;4.55;2.58;;;;;;;;;;5000723;28;20026;-61
2021/08/13 10:29:26;;;;;;;7.45;2.47;;;;;;;;;;5003794;28;20035;-61
2021/08/13 10:31:51;;;;;;;5.45;2.67;;;;;;;;;;5001847;28;20064;-60
2021/08/13 10:34:17;;;;;;;6.35;2.42;;;;;;;;;;4983196;28;20491;-60
2021/08/13 10:36:45;;;;;;;5.45;2.20;;;;;;;;;;4984726;28;20033;-61
2021/08/13 10:39:15;;;;;;;6.10;2.15;;;;;;;;;;4985204;28;20118;-61
2021/08/13 10:41:48;;;;;;;3.55;2.30;;;;;;;;;;4999803;28;20041;-63
2021/08/13 10:44:19;;;;;;;2.78;2.08;;;;;;;;;;5001214;28;20037;-62
2021/08/13 10:46:50;;;;;;;3.97;2.42;;;;;;;;;;4982526;28;20124;-62
2021/08/13 10:49:18;;;;;;;4.32;2.10;;;;;;;;;;4988637;28;20144;-61
2021/08/13 10:51:59;;;;;;;6.88;2.17;;;;;;;;;;5001367;28;20025;-61
2021/08/13 10:54:37;;;;;;;3.67;2.10;;;;;;;;;;4983848;28;20105;-61
2021/08/13 10:57:05;;;;;;;6.80;1.85;;;;;;;;;;4974124;28;20695;-60
2021/08/13 10:59:39;;;;;;;5.53;2.30;;;;;;;;;;5000571;28;20583;-62
2021/08/13 11:02:12;;;;;;;4.75;1.90;;;;;;;;;;4984961;28;20148;-61
2021/08/13 11:05:02;;;;;;;3.97;1.85;;;;;;;;;;4984159;28;20029;-61
2021/08/13 11:07:46;;;;;;;4.63;2.05;;;;;;;;;;4986697;28;20075;-61
2021/08/13 11:10:14;;;;;;;;;;;;;;;;;;5000925;28;20037;-61
2021/08/13 11:12:59;;;;;;;5.25;2.17;;;;;;;;;;5003011;28;19913;-61
2021/08/13 11:15:35;;;;;;;3.53;1.80;;;;;;;;;;5002497;28;20037;-63
2021/08/13 11:18:22;;;;;;;4.50;1.85;;;;;;;;;;4965161;28;20026;-61
2021/08/13 11:20:48;;;;;;;4.30;1.55;;;;;;;;;;5002592;28;20037;-62
2021/08/13 11:23:14;;;;;;;4.55;1.63;;;;;;;;;;4999493;28;20077;-61
2021/08/13 11:25:44;;;;;;;4.40;1.80;;;;;;;;;;5000670;28;20666;-63
2021/08/13 11:28:18;;;;;;;4.57;1.70;;;;;;;;;;4999717;28;20033;-61
2021/08/13 11:30:45;;;;;;;;;;;;;;;;;;5002351;28;20029;-62
2021/08/13 11:36:53;;;;;;;8.18;1.80;;;;;;;;;;5001788;28;20044;-62
2021/08/13 11:39:33;;;;;;;14.02;2.08;;;;;;;;;;4999431;28;20037;-62
2021/08/13 11:42:02;;;;;;;5.25;1.67;;;;;;;;;;4999677;28;20042;-62
2021/08/13 11:44:32;;;;;;;4.65;1.60;;;;;;;;;;5001872;28;20029;-61
2021/08/13 11:47:01;;;;;;;3.40;1.50;;;;;;;;;;4997923;28;20033;-63
2021/08/13 11:49:30;;;;;;;7.03;1.85;;;;;;;;;;4968506;28;20033;-62
2021/08/13 11:51:56;;;;;;;2.47;1.20;;;;;;;;;;5000134;28;20041;-61
2021/08/13 11:54:26;;;;;;;5.97;1.65;;;;;;;;;;5001117;28;22144;-62
2021/08/13 11:56:54;;;;;;;6.53;1.80;;;;;;;;;;4984471;28;20038;-62
2021/08/13 11:59:19;;;;;;;3.08;1.70;;;;;;;;;;4997185;28;20068;-63
2021/08/13 12:01:49;;;;;;;5.07;1.55;;;;;;;;;;5000191;28;20120;-61
2021/08/13 12:04:23;;;;;;;12.35;2.10;;;;;;;;;;4967756;28;20060;-63
2021/08/13 12:07:01;;;;;;;6.45;1.73;;;;;;;;;;4982945;28;20030;-62
2021/08/13 12:09:31;;;;;;;8.80;1.83;;;;;;;;;;4987135;28;20457;-62
2021/08/13 12:12:00;;;;;;;6.35;2.30;;;;;;;;;;5001904;28;20041;-61
2021/08/13 12:14:50;;;;;;;5.28;1.77;;;;;;;;;;5002691;28;20029;-61
2021/08/13 12:17:18;;;;;;;4.85;1.77;;;;;;;;;;5001647;28;20052;-61
2021/08/13 12:19:55;;;;;;;7.47;2.88;;;;;;;;;;5004029;28;20025;-62
2021/08/13 12:22:33;;;;;;;6.75;1.77;;;;;;;;;;4979303;28;20034;-61
2021/08/13 12:28:28;;;;;;;9.35;1.50;;;;;;;;;;5005105;28;20014;-63
2021/08/13 12:31:12;;;;;;;5.85;2.08;;;;;;;;;;4984792;28;20061;-61
2021/08/13 12:33:52;;;;;;;5.80;1.40;;;;;;;;;;5002852;28;20497;-63
2021/08/13 12:36:20;;;;;;;7.25;1.73;;;;;;;;;;4991518;28;20021;-61
2021/08/13 12:38:45;;;;;;;7.45;1.70;;;;;;;;;;4986695;28;20033;-63
2021/08/13 12:41:15;;;;;;;6.72;1.92;;;;;;;;;;4987253;28;20858;-63
2021/08/13 12:43:47;;;;;;;5.13;1.88;;;;;;;;;;5004133;28;20057;-62
2021/08/13 12:46:15;;;;;;;4.18;1.65;;;;;;;;;;5003812;28;20404;-63
2021/08/13 12:48:44;;;;;;;4.50;1.50;;;;;;;;;;4987691;28;20635;-61
2021/08/13 12:51:26;;;;;;;3.38;1.40;;;;;;;;;;4987049;28;20073;-60
2021/08/13 12:53:55;;;;;;;8.63;1.80;;;;;;;;;;5002807;28;20051;-62
2021/08/13 12:56:21;;;;;;;4.93;1.65;;;;;;;;;;5003452;28;20591;-65
2021/08/13 12:58:49;;;;;;;6.20;2.10;;;;;;;;;;4981461;28;20053;-62
2021/08/13 13:01:31;;;;;;;7.53;2.20;;;;;;;;;;5005729;28;20029;-61
2021/08/13 13:04:15;;;;;;;5.68;2.00;;;;;;;;;;4986652;28;20063;-60
2021/08/13 13:06:43;;;;;;;6.00;1.95;;;;;;;;;;4992178;28;20123;-63
2021/08/13 13:09:09;;;;;;;6.35;1.98;;;;;;;;;;4985371;28;20043;-64
2021/08/13 13:11:56;;;;;;;8.13;1.77;;;;;;;;;;4983244;28;20034;-61
2021/08/13 13:14:32;;;;;;;5.55;1.75;;;;;;;;;;4978578;28;20037;-62
2021/08/13 13:17:05;;;;;;;8.80;2.25;;;;;;;;;;5001413;28;20060;-62
2021/08/13 13:19:31;;;;;;;6.00;1.70;;;;;;;;;;4981675;28;20060;-62
2021/08/13 13:22:16;;;;;;;3.22;1.45;;;;;;;;;;4997982;28;20114;-62
2021/08/13 13:24:44;;;;;;;5.63;1.98;;;;;;;;;;4991698;28;20037;-61
2021/08/13 13:30:27;;;;;;;9.20;2.28;;;;;;;;;;5002372;28;20112;-61
2021/08/13 13:33:04;;;;;;;7.80;2.25;;;;;;;;;;5001716;28;20119;-63
2021/08/13 13:35:32;;;;;;;5.32;2.08;;;;;;;;;;4985941;28;20046;-60
2021/08/13 13:38:03;;;;;;;5.13;1.98;;;;;;;;;;4983761;28;20029;-64
2021/08/13 13:40:29;;;;;;;6.57;1.58;;;;;;;;;;5001617;28;20086;-62
2021/08/13 13:42:55;;;;;;;7.20;1.65;;;;;;;;;;4987354;28;20045;-63
2021/08/13 13:45:25;;;;;;;4.53;1.55;;;;;;;;;;5004274;28;20033;-62
2021/08/13 13:47:53;;;;;;;5.85;2.00;;;;;;;;;;5001489;28;20041;-63
2021/08/13 13:50:25;;;;;;;6.97;1.90;;;;;;;;;;4992366;28;20040;-63
2021/08/13 13:52:51;;;;;;;5.95;1.80;;;;;;;;;;4981876;28;20447;-63
2021/08/13 13:55:16;;;;;;;5.70;1.80;;;;;;;;;;5001668;28;20707;-63
2021/08/13 13:57:42;;;;;;;5.13;1.80;;;;;;;;;;4988204;28;20083;-62
2021/08/13 14:00:29;;;;;;;6.57;1.90;;;;;;;;;;4982821;28;20025;-62
2021/08/13 14:02:54;;;;;;;5.35;1.40;;;;;;;;;;4985945;28;20034;-63
2021/08/13 14:05:24;;;;;;;5.95;1.70;;;;;;;;;;4983134;28;20034;-63
2021/08/13 14:07:50;;;;;;;4.82;1.65;;;;;;;;;;4979434;28;20034;-64
2021/08/13 14:10:17;;;;;;;9.82;1.92;;;;;;;;;;4979869;28;20120;-65
2021/08/13 14:12:43;;;;;;;7.32;1.75;;;;;;;;;;4989152;28;20017;-62
2021/08/13 14:15:10;;;;;;;7.47;1.80;;;;;;;;;;4987487;28;20044;-62
2021/08/13 14:17:37;;;;;;;9.73;1.90;;;;;;;;;;4991934;28;22170;-62
2021/08/13 14:20:09;;;;;;;8.00;1.60;;;;;;;;;;4980064;28;20616;-63
2021/08/13 14:22:37;;;;;;;7.95;1.77;;;;;;;;;;4983319;28;20048;-64
2021/08/13 14:25:11;;;;;;;5.68;1.90;;;;;;;;;;4997004;28;20026;-63
2021/08/13 14:27:38;;;;;;;6.43;1.63;;;;;;;;;;4981274;28;20137;-64
2021/08/13 14:33:23;;;;;;;7.70;1.80;;;;;;;;;;4991634;28;20033;-62
2021/08/13 14:39:30;;;;;;;6.68;1.73;;;;;;;;;;4999665;28;20495;-62
2021/08/13 14:42:11;;;;;;;5.32;1.58;;;;;;;;;;4946433;28;20057;-63
2021/08/13 14:44:39;;;;;;;8.88;1.70;;;;;;;;;;4962536;28;20037;-61
2021/08/13 14:47:06;;;;;;;9.60;2.10;;;;;;;;;;4948504;28;20102;-61
2021/08/13 14:49:32;;;;;;;9.25;2.15;;;;;;;;;;4951941;28;20785;-60
2021/08/13 14:51:59;;;;;;;7.18;1.70;;;;;;;;;;4975116;28;20096;-61
2021/08/13 14:54:25;;;;;;;8.35;1.58;;;;;;;;;;4963807;28;20034;-62
2021/08/13 14:56:53;;;;;;;8.32;1.73;;;;;;;;;;4980611;28;20037;-62
2021/08/13 15:02:55;;;;;;;4.95;1.63;;;;;;;;;;4980592;28;20037;-61
2021/08/13 15:08:38;;;;;;;8.05;1.63;;;;;;;;;;4965355;28;20226;-60
2021/08/13 15:11:04;;;;;;;4.93;1.42;;;;;;;;;;4996993;28;20116;-60
2021/08/13 15:13:35;;;;;;;10.63;1.55;;;;;;;;;;5001519;28;20079;-60
2021/08/13 15:16:00;;;;;;;2.95;1.33;;;;;;;;;;4985647;28;20040;-60
2021/08/13 15:18:28;;;;;;;13.23;1.65;;;;;;;;;;4982843;28;20029;-61
2021/08/13 15:20:53;;;;;;;7.95;1.05;;;;;;;;;;5001125;28;20046;-61
2021/08/13 15:23:38;;;;;;;4.93;1.70;;;;;;;;;;4998942;28;20037;-61